createdAt,value
2022-08-14T00:01:46.163Z,100.00
2022-08-14T00:04:32.168Z,100.00
2022-08-14T00:07:04.766Z,100.00
2022-08-14T00:09:55.876Z,100.00
2022-08-14T00:12:24.442Z,100.00
2022-08-14T00:14:54.846Z,100.00
2022-08-14T00:17:21.999Z,100.00
2022-08-14T00:19:48.556Z,100.00
2022-08-14T00:22:44.091Z,100.00
2022-08-14T00:25:10.059Z,100.00
2022-08-14T00:27:37.987Z,100.00
2022-08-14T00:30:14.171Z,100.00
2022-08-14T00:32:55.745Z,100.00
2022-08-14T00:36:36.034Z,100.00
2022-08-14T00:38:15.392Z,100.00
2022-08-14T00:40:46.201Z,100.00
2022-08-14T00:43:13.488Z,100.00
2022-08-14T00:45:42.873Z,100.00
2022-08-14T00:48:34.273Z,100.00
2022-08-14T00:51:06.387Z,100.00
2022-08-14T00:53:33.368Z,100.00
2022-08-14T00:55:59.948Z,100.00
2022-08-14T00:58:33.319Z,100.00
2022-08-14T01:01:11.551Z,100.00
2022-08-14T01:03:42.560Z,100.00
2022-08-14T01:06:15.291Z,100.00
2022-08-14T01:08:51.979Z,100.00
2022-08-14T01:11:35.528Z,100.00
2022-08-14T01:14:18.117Z,100.00
2022-08-14T01:16:52.836Z,100.00
2022-08-14T01:19:38.676Z,100.00
2022-08-14T01:22:08.100Z,100.00
2022-08-14T01:24:39.518Z,100.00
2022-08-14T01:27:07.313Z,100.00
2022-08-14T01:29:58.561Z,100.00
2022-08-14T01:32:24.608Z,100.00
2022-08-14T01:35:18.632Z,100.00
2022-08-14T01:37:44.493Z,100.00
2022-08-14T01:40:19.794Z,100.00
2022-08-14T01:42:46.754Z,100.00
2022-08-14T01:45:17.791Z,100.00
2022-08-14T01:47:51.918Z,100.00
2022-08-14T01:50:29.671Z,100.00
2022-08-14T01:52:59.174Z,100.00
2022-08-14T01:55:32.514Z,100.00
2022-08-14T01:58:01.839Z,100.00
2022-08-14T02:00:48.051Z,100.00
2022-08-14T02:03:16.175Z,100.00
2022-08-14T02:05:43.545Z,100.00
2022-08-14T02:08:10.621Z,100.00
2022-08-14T02:10:46.655Z,100.00
2022-08-14T02:13:16.113Z,100.00
2022-08-14T02:15:43.666Z,100.00
2022-08-14T02:18:10.587Z,100.00
2022-08-14T02:20:40.021Z,100.00
2022-08-14T02:23:08.315Z,100.00
2022-08-14T02:25:35.032Z,100.00
2022-08-14T02:28:23.428Z,100.00
2022-08-14T02:30:52.359Z,100.00
2022-08-14T02:33:20.602Z,100.00
2022-08-14T02:35:53.305Z,100.00
2022-08-14T02:38:29.579Z,100.00
2022-08-14T02:40:58.651Z,100.00
2022-08-14T02:43:37.346Z,100.00
2022-08-14T02:46:13.532Z,100.00
2022-08-14T02:49:02.468Z,100.00
2022-08-14T02:51:36.519Z,100.00
2022-08-14T02:54:05.300Z,100.00
2022-08-14T02:57:15.431Z,100.00
2022-08-14T02:59:19.143Z,100.00
2022-08-14T03:01:51.182Z,100.00
2022-08-14T03:04:22.406Z,100.00
2022-08-14T03:06:57.857Z,100.00
2022-08-14T03:09:41.917Z,100.00
2022-08-14T03:12:31.415Z,100.00
2022-08-14T03:15:02.793Z,100.00
2022-08-14T03:17:32.115Z,100.00
2022-08-14T03:20:11.143Z,100.00
2022-08-14T03:22:42.081Z,100.00
2022-08-14T03:25:10.030Z,100.00
2022-08-14T03:27:48.411Z,100.00
2022-08-14T03:30:24.719Z,100.00
2022-08-14T03:33:08.109Z,100.00
2022-08-14T03:35:39.990Z,100.00
2022-08-14T03:39:12.936Z,100.00
2022-08-14T03:41:00.666Z,100.00
2022-08-14T03:43:28.531Z,100.00
2022-08-14T03:45:59.967Z,100.00
2022-08-14T03:48:30.133Z,100.00
2022-08-14T03:50:57.522Z,100.00
2022-08-14T03:53:26.354Z,100.00
2022-08-14T03:55:56.125Z,100.00
2022-08-14T03:58:36.609Z,100.00
2022-08-14T04:01:04.304Z,100.00
2022-08-14T04:03:33.273Z,100.00
2022-08-14T04:06:04.904Z,100.00
2022-08-14T04:08:37.031Z,100.00
2022-08-14T04:11:10.142Z,100.00
2022-08-14T04:13:39.794Z,100.00
2022-08-14T04:16:14.081Z,100.00
2022-08-14T04:18:46.282Z,100.00
2022-08-14T04:21:14.836Z,100.00
2022-08-14T04:23:43.389Z,100.00
2022-08-14T04:26:14.210Z,100.00
2022-08-14T04:29:01.466Z,100.00
2022-08-14T04:32:59.322Z,100.00
2022-08-14T04:34:24.246Z,100.00
2022-08-14T04:37:13.155Z,100.00
2022-08-14T04:39:58.862Z,100.00
2022-08-14T04:42:47.198Z,100.00
2022-08-14T04:45:20.019Z,100.00
2022-08-14T04:48:05.564Z,100.00
2022-08-14T04:50:37.903Z,100.00
2022-08-14T04:53:23.123Z,100.00
2022-08-14T04:55:53.442Z,100.00
2022-08-14T04:58:32.226Z,100.00
2022-08-14T05:01:01.116Z,100.00
2022-08-14T05:03:31.465Z,100.00
2022-08-14T05:06:00.319Z,100.00
2022-08-14T05:08:32.004Z,100.00
2022-08-14T05:11:13.931Z,100.00
2022-08-14T05:14:43.266Z,100.00
2022-08-14T05:16:31.735Z,100.00
2022-08-14T05:19:25.084Z,100.00
2022-08-14T05:21:57.146Z,100.00
2022-08-14T05:24:27.742Z,100.00
2022-08-14T05:26:54.474Z,100.00
2022-08-14T05:29:21.913Z,100.00
2022-08-14T05:31:49.018Z,100.00
2022-08-14T05:34:22.427Z,100.00
2022-08-14T05:37:02.873Z,100.00
2022-08-14T05:39:31.263Z,100.00
2022-08-14T05:41:58.318Z,100.00
2022-08-14T05:44:29.942Z,100.00
2022-08-14T05:46:58.305Z,100.00
2022-08-14T05:49:32.663Z,100.00
2022-08-14T05:52:01.845Z,100.00
2022-08-14T05:54:30.686Z,100.00
2022-08-14T05:57:04.596Z,100.00
2022-08-14T05:59:38.647Z,100.00
2022-08-14T06:02:06.365Z,100.00
2022-08-14T06:04:32.915Z,100.00
2022-08-14T06:06:59.616Z,100.00
2022-08-14T06:09:26.375Z,100.00
2022-08-14T06:11:53.199Z,100.00
2022-08-14T06:14:23.835Z,100.00
2022-08-14T06:16:53.070Z,100.00
2022-08-14T06:19:20.250Z,100.00
2022-08-14T06:21:55.835Z,100.00
2022-08-14T06:24:26.120Z,100.00
2022-08-14T06:26:56.601Z,100.00
2022-08-14T06:29:33.408Z,100.00
2022-08-14T06:32:37.619Z,100.00
2022-08-14T06:35:02.593Z,100.00
2022-08-14T06:37:43.993Z,100.00
2022-08-14T06:40:25.552Z,100.00
2022-08-14T06:43:06.855Z,100.00
2022-08-14T06:45:34.583Z,100.00
2022-08-14T06:48:06.189Z,100.00
2022-08-14T06:50:39.795Z,100.00
2022-08-14T06:53:07.329Z,100.00
2022-08-14T06:55:34.164Z,100.00
2022-08-14T06:58:03.751Z,100.00
2022-08-14T07:00:31.558Z,100.00
2022-08-14T07:03:19.408Z,100.00
2022-08-14T07:05:55.427Z,100.00
2022-08-14T07:08:29.515Z,100.00
2022-08-14T07:11:01.012Z,100.00
2022-08-14T07:13:30.390Z,100.00
2022-08-14T07:16:00.614Z,100.00
2022-08-14T07:18:31.103Z,100.00
2022-08-14T07:20:59.652Z,100.00
2022-08-14T07:23:26.660Z,100.00
2022-08-14T07:25:55.890Z,100.00
2022-08-14T07:28:43.033Z,100.00
2022-08-14T07:31:11.837Z,100.00
2022-08-14T07:33:49.982Z,100.00
2022-08-14T07:36:27.036Z,100.00
2022-08-14T07:39:00.322Z,100.00
2022-08-14T07:52:42.506Z,99.41
2022-08-14T07:55:15.150Z,99.61
2022-08-14T07:57:48.041Z,99.95
2022-08-14T08:00:31.136Z,100.00
2022-08-14T08:03:00.274Z,100.00
2022-08-14T08:05:27.955Z,99.64
2022-08-14T08:07:54.926Z,99.38
2022-08-14T08:10:57.147Z,98.26
2022-08-14T08:13:24.470Z,98.80
2022-08-14T08:15:57.412Z,99.56
2022-08-14T08:18:29.218Z,97.08
2022-08-14T08:20:59.217Z,95.83
2022-08-14T08:23:30.291Z,95.78
2022-08-14T08:26:08.063Z,95.60
2022-08-14T08:28:35.036Z,95.78
2022-08-14T08:31:05.785Z,95.27
2022-08-14T08:33:37.032Z,95.60
2022-08-14T08:36:12.614Z,95.81
2022-08-14T08:39:17.532Z,94.97
2022-08-14T08:41:28.041Z,94.42
2022-08-14T08:44:05.560Z,92.44
2022-08-14T08:46:32.215Z,91.44
2022-08-14T08:51:33.407Z,90.31
2022-08-14T08:54:01.287Z,90.45
2022-08-14T08:56:40.423Z,89.34
2022-08-14T08:59:21.903Z,88.50
2022-08-14T09:01:56.256Z,88.61
2022-08-14T09:04:35.615Z,89.36
2022-08-14T09:07:12.182Z,89.82
2022-08-14T09:09:53.625Z,88.28
2022-08-14T09:12:23.790Z,88.32
2022-08-14T09:14:53.271Z,87.48
2022-08-14T09:17:20.685Z,86.29
2022-08-14T09:19:53.658Z,87.95
2022-08-14T09:22:35.173Z,87.13
2022-08-14T09:25:07.406Z,85.54
2022-08-14T09:27:35.388Z,86.10
2022-08-14T09:30:31.633Z,85.18
2022-08-14T09:33:17.413Z,85.62
2022-08-14T09:36:27.781Z,84.49
2022-08-14T09:39:42.364Z,86.09
2022-08-14T09:42:50.038Z,84.73
2022-08-14T09:45:40.101Z,84.29
2022-08-14T09:48:27.511Z,84.30
2022-08-14T09:50:56.641Z,82.52
2022-08-14T09:54:18.181Z,81.87
2022-08-14T09:56:32.785Z,81.95
2022-08-14T09:59:15.172Z,82.15
2022-08-14T10:01:43.988Z,83.36
2022-08-14T10:04:36.535Z,82.98
2022-08-14T10:07:08.500Z,82.56
2022-08-14T10:09:59.658Z,82.49
2022-08-14T10:12:42.723Z,83.49
2022-08-14T10:15:20.057Z,82.80
2022-08-14T10:17:53.298Z,82.13
2022-08-14T10:20:39.777Z,80.47
2022-08-14T10:23:15.833Z,80.43
2022-08-14T10:25:52.961Z,80.37
2022-08-14T10:29:03.891Z,79.57
2022-08-14T10:31:29.801Z,81.02
2022-08-14T10:34:12.929Z,77.89
2022-08-14T10:36:44.895Z,78.87
2022-08-14T10:39:23.686Z,79.11
2022-08-14T10:42:16.465Z,78.02
2022-08-14T10:44:48.835Z,77.30
2022-08-14T10:47:39.642Z,76.77
2022-08-14T10:50:06.605Z,75.00
2022-08-14T10:52:35.767Z,74.90
2022-08-14T10:55:14.244Z,75.82
2022-08-14T10:57:52.861Z,74.80
2022-08-14T11:00:30.354Z,74.88
2022-08-14T11:03:19.896Z,75.19
2022-08-14T11:05:55.654Z,75.83
2022-08-14T11:08:33.926Z,75.57
2022-08-14T11:11:03.360Z,76.09
2022-08-14T11:13:31.799Z,73.57
2022-08-14T11:16:01.263Z,74.19
2022-08-14T11:18:36.282Z,75.00
2022-08-14T11:21:08.358Z,73.70
2022-08-14T11:23:40.681Z,73.98
2022-08-14T11:26:11.926Z,71.91
2022-08-14T11:28:46.351Z,73.60
2022-08-14T11:31:23.831Z,73.11
2022-08-14T11:33:57.801Z,71.11
2022-08-14T11:36:35.200Z,70.35
2022-08-14T11:39:34.637Z,71.99
2022-08-14T11:42:56.702Z,72.32
2022-08-14T11:45:04.325Z,72.02
2022-08-14T11:47:43.671Z,71.96
2022-08-14T11:50:34.134Z,72.12
2022-08-14T11:53:05.622Z,70.28
2022-08-14T11:55:38.350Z,71.00
2022-08-14T11:58:11.254Z,69.04
2022-08-14T12:00:50.068Z,68.50
2022-08-14T12:03:37.293Z,70.56
2022-08-14T12:06:29.555Z,70.06
2022-08-14T12:09:00.013Z,69.47
2022-08-14T12:11:38.276Z,70.26
2022-08-14T12:14:13.512Z,68.28
2022-08-14T12:17:09.610Z,67.71
2022-08-14T12:19:53.680Z,66.97
2022-08-14T12:22:43.198Z,67.51
2022-08-14T12:25:21.690Z,66.88
2022-08-14T12:27:59.465Z,66.55
2022-08-14T12:30:39.836Z,66.46
2022-08-14T12:33:33.823Z,65.18
2022-08-14T12:36:11.037Z,65.63
2022-08-14T12:38:44.932Z,65.56
2022-08-14T12:41:20.965Z,65.13
2022-08-14T12:43:51.696Z,68.21
2022-08-14T12:46:27.028Z,67.12
2022-08-14T12:48:56.990Z,65.95
2022-08-14T12:51:28.650Z,65.30
2022-08-14T12:53:59.680Z,64.85
2022-08-14T12:56:33.809Z,64.84
2022-08-14T12:59:01.599Z,64.97
2022-08-14T13:01:31.345Z,64.63
2022-08-14T13:04:17.442Z,64.36
2022-08-14T13:06:50.621Z,64.07
2022-08-14T13:09:19.132Z,65.53
2022-08-14T13:11:58.415Z,65.96
2022-08-14T13:14:30.053Z,65.43
2022-08-14T13:16:58.772Z,65.49
2022-08-14T13:19:26.825Z,64.45
2022-08-14T13:22:05.400Z,63.92
2022-08-14T13:24:39.413Z,65.37
2022-08-14T13:27:09.845Z,65.56
2022-08-14T13:29:44.686Z,64.91
2022-08-14T13:32:14.535Z,63.08
2022-08-14T13:34:43.762Z,63.87
2022-08-14T13:37:14.645Z,63.92
2022-08-14T13:39:46.881Z,64.08
2022-08-14T13:42:23.983Z,64.64
2022-08-14T13:44:54.783Z,65.06
2022-08-14T13:47:29.633Z,65.79
2022-08-14T13:50:00.540Z,65.26
2022-08-14T13:52:53.044Z,65.85
2022-08-14T13:55:19.735Z,62.98
2022-08-14T13:57:49.539Z,62.23
2022-08-14T14:00:21.830Z,63.21
2022-08-14T14:03:00.125Z,64.71
2022-08-14T14:05:53.207Z,65.89
2022-08-14T14:08:18.752Z,66.01
2022-08-14T14:11:03.498Z,66.42
2022-08-14T14:13:31.356Z,65.29
2022-08-14T14:16:03.829Z,65.28
2022-08-14T14:18:34.937Z,66.30
2022-08-14T14:21:03.024Z,65.55
2022-08-14T14:23:32.490Z,64.56
2022-08-14T14:25:59.771Z,64.08
2022-08-14T14:28:32.198Z,64.42
2022-08-14T14:31:06.958Z,64.52
2022-08-14T14:33:47.874Z,63.60
2022-08-14T14:36:26.113Z,62.62
2022-08-14T14:38:58.701Z,62.06
2022-08-14T14:41:37.871Z,63.28
2022-08-14T14:44:16.518Z,62.73
2022-08-14T14:46:50.094Z,62.87
2022-08-14T14:49:18.538Z,61.61
2022-08-14T14:51:51.414Z,61.84
2022-08-14T14:54:31.126Z,61.83
2022-08-14T14:57:05.153Z,63.03
2022-08-14T14:59:37.524Z,62.02
2022-08-14T15:02:07.743Z,62.71
2022-08-14T15:04:43.731Z,62.72
2022-08-14T15:07:10.763Z,62.98
2022-08-14T15:09:39.311Z,62.32
2022-08-14T15:12:34.508Z,64.21
2022-08-14T15:14:58.071Z,64.63
2022-08-14T15:17:41.680Z,62.76
2022-08-14T15:20:17.510Z,62.88
2022-08-14T15:22:56.515Z,62.78
2022-08-14T15:25:23.129Z,62.91
2022-08-14T15:27:51.181Z,63.19
2022-08-14T15:30:23.857Z,63.25
2022-08-14T15:32:50.710Z,63.18
2022-08-14T15:35:17.231Z,63.47
2022-08-14T15:37:55.735Z,61.96
2022-08-14T15:40:22.915Z,62.81
2022-08-14T15:42:49.557Z,63.24
2022-08-14T15:45:17.344Z,61.66
2022-08-14T15:47:44.410Z,61.97
2022-08-14T15:50:13.129Z,62.87
2022-08-14T15:52:43.191Z,62.27
2022-08-14T15:55:15.359Z,60.13
2022-08-14T15:58:01.916Z,58.55
2022-08-14T16:00:51.696Z,57.17
2022-08-14T16:03:24.848Z,56.74
2022-08-14T16:05:55.769Z,58.27
2022-08-14T16:08:27.347Z,57.47
2022-08-14T16:10:58.752Z,56.94
2022-08-14T16:13:41.534Z,57.08
2022-08-14T16:16:50.580Z,57.49
2022-08-14T16:19:15.981Z,57.91
2022-08-14T16:22:02.666Z,58.06
2022-08-14T16:24:33.602Z,57.67
2022-08-14T16:27:01.454Z,57.29
2022-08-14T16:29:30.570Z,57.62
2022-08-14T16:32:01.673Z,57.67
2022-08-14T16:34:51.015Z,58.67
2022-08-14T16:37:22.728Z,59.75
2022-08-14T16:39:49.491Z,60.72
2022-08-14T16:43:03.198Z,61.09
2022-08-14T16:45:12.709Z,62.21
2022-08-14T16:47:40.075Z,62.75
2022-08-14T16:50:11.767Z,63.64
2022-08-14T16:52:54.411Z,63.99
2022-08-14T16:55:22.519Z,65.08
2022-08-14T16:57:58.920Z,65.54
2022-08-14T17:00:32.972Z,65.61
2022-08-14T17:03:08.399Z,66.22
2022-08-14T17:05:43.376Z,67.36
2022-08-14T17:08:41.401Z,67.56
2022-08-14T17:11:11.096Z,68.03
2022-08-14T17:13:58.041Z,68.11
2022-08-14T17:16:31.051Z,68.82
2022-08-14T17:19:01.655Z,69.12
2022-08-14T17:21:32.622Z,69.24
2022-08-14T17:24:58.468Z,69.58
2022-08-14T17:26:55.269Z,69.47
2022-08-14T17:29:29.651Z,69.46
2022-08-14T17:32:21.871Z,70.25
2022-08-14T17:34:53.657Z,69.81
2022-08-14T17:37:24.861Z,70.36
2022-08-14T17:40:25.960Z,70.51
2022-08-14T17:43:00.924Z,70.79
2022-08-14T17:45:41.007Z,70.98
2022-08-14T17:49:09.879Z,71.48
2022-08-14T17:51:12.299Z,71.75
2022-08-14T17:53:52.651Z,71.97
2022-08-14T17:56:20.769Z,72.67
2022-08-14T17:58:49.357Z,73.04
2022-08-14T18:01:17.489Z,73.35
2022-08-14T18:03:53.583Z,73.51
2022-08-14T18:06:57.846Z,74.01
2022-08-14T18:09:25.517Z,74.36
2022-08-14T18:12:03.907Z,74.37
2022-08-14T18:14:32.763Z,74.94
2022-08-14T18:17:01.563Z,75.30
2022-08-14T18:19:30.818Z,75.62
2022-08-14T18:21:59.885Z,75.94
2022-08-14T18:24:29.442Z,75.93
2022-08-14T18:27:13.359Z,75.89
2022-08-14T18:29:56.699Z,75.97
2022-08-14T18:32:27.388Z,76.12
2022-08-14T18:35:14.572Z,76.19
2022-08-14T18:37:56.145Z,76.77
2022-08-14T18:40:34.705Z,77.11
2022-08-14T18:43:03.321Z,77.47
2022-08-14T18:45:33.873Z,77.74
2022-08-14T18:48:18.665Z,78.36
2022-08-14T18:51:09.836Z,78.50
2022-08-14T18:53:54.453Z,78.27
2022-08-14T18:56:57.799Z,78.67
2022-08-14T18:59:29.268Z,78.70
2022-08-14T19:02:30.407Z,79.18
2022-08-14T19:05:02.487Z,79.38
2022-08-14T19:07:33.921Z,80.27
2022-08-14T19:10:02.181Z,80.66
2022-08-14T19:13:00.461Z,80.55
2022-08-14T19:15:31.516Z,80.47
2022-08-14T19:18:10.946Z,80.37
2022-08-14T19:20:52.814Z,79.93
2022-08-14T19:23:22.973Z,80.10
2022-08-14T19:25:51.595Z,80.29
2022-08-14T19:28:31.250Z,81.05
2022-08-14T19:31:42.428Z,81.75
2022-08-14T19:34:09.569Z,81.92
2022-08-14T19:37:05.942Z,82.52
2022-08-14T19:39:48.138Z,82.38
2022-08-14T19:42:28.094Z,82.63
2022-08-14T19:44:57.076Z,82.14
2022-08-14T19:47:41.214Z,82.42
2022-08-14T19:50:37.812Z,82.41
2022-08-14T19:53:10.696Z,82.73
2022-08-14T19:55:45.754Z,82.65
2022-08-14T19:58:12.745Z,82.17
2022-08-14T20:00:52.068Z,82.65
2022-08-14T20:03:23.874Z,83.41
2022-08-14T20:06:03.181Z,83.82
2022-08-14T20:10:58.268Z,84.43
2022-08-14T20:12:00.289Z,83.85
2022-08-14T20:14:29.810Z,84.04
2022-08-14T20:17:06.214Z,83.90
2022-08-14T20:19:37.617Z,84.35
2022-08-14T20:22:35.431Z,84.65
2022-08-14T20:25:11.438Z,84.62
2022-08-14T20:27:40.906Z,84.60
2022-08-14T20:30:33.917Z,84.63
2022-08-14T20:35:52.380Z,86.10
2022-08-14T20:38:29.681Z,86.19
2022-08-14T20:40:58.573Z,85.70
2022-08-14T20:43:52.768Z,85.50
2022-08-14T20:46:23.562Z,85.51
2022-08-14T20:49:09.157Z,85.28
2022-08-14T20:51:38.885Z,84.92
2022-08-14T20:54:22.001Z,84.71
2022-08-14T20:57:08.599Z,84.96
2022-08-14T20:59:48.762Z,84.91
2022-08-14T21:02:30.353Z,85.01
2022-08-14T21:05:16.655Z,84.63
2022-08-14T21:07:44.528Z,84.63
2022-08-14T21:10:32.729Z,84.07
2022-08-14T21:13:26.807Z,84.34
2022-08-14T21:15:57.799Z,85.42
2022-08-14T21:18:47.489Z,86.15
2022-08-14T21:21:18.473Z,86.32
2022-08-14T21:23:54.725Z,85.73
2022-08-14T21:26:51.152Z,85.99
2022-08-14T21:29:13.510Z,86.65
2022-08-14T21:31:41.253Z,86.41
2022-08-14T21:34:27.303Z,86.38
2022-08-14T21:36:56.747Z,87.04
2022-08-14T21:39:24.761Z,87.11
2022-08-14T21:41:58.880Z,86.51
2022-08-14T21:44:42.715Z,86.06
2022-08-14T21:47:10.092Z,86.08
2022-08-14T21:49:38.700Z,86.50
2022-08-14T21:52:52.225Z,86.60
2022-08-14T21:54:58.198Z,86.30
2022-08-14T21:57:53.553Z,86.32
2022-08-14T22:00:34.751Z,86.61
2022-08-14T22:03:08.910Z,86.90
2022-08-14T22:05:40.878Z,87.44
2022-08-14T22:08:11.975Z,87.83
2022-08-14T22:10:42.464Z,87.61
2022-08-14T22:13:12.257Z,87.62
2022-08-14T22:15:43.822Z,87.80
2022-08-14T22:18:20.418Z,88.19
2022-08-14T22:20:53.368Z,88.60
2022-08-14T22:23:23.136Z,88.85
2022-08-14T22:25:49.907Z,89.29
2022-08-14T22:28:25.423Z,88.50
2022-08-14T22:30:55.010Z,88.37
2022-08-14T22:33:31.005Z,88.62
2022-08-14T22:36:00.402Z,89.81
2022-08-14T22:38:37.572Z,90.62
2022-08-14T22:41:26.594Z,91.13
2022-08-14T22:43:56.947Z,90.60
2022-08-14T22:46:26.420Z,90.05
2022-08-14T22:48:53.828Z,89.40
2022-08-14T22:51:22.759Z,89.23
2022-08-14T22:53:52.317Z,89.53
2022-08-14T22:56:21.856Z,90.18
2022-08-14T22:58:54.056Z,91.26
2022-08-14T23:01:55.479Z,91.60
2022-08-14T23:04:35.906Z,90.95
2022-08-14T23:07:22.234Z,91.27
2022-08-14T23:09:56.486Z,91.67
2022-08-14T23:12:27.369Z,91.65
2022-08-14T23:14:55.666Z,91.20
2022-08-14T23:17:22.665Z,91.57
2022-08-14T23:19:49.315Z,90.92
2022-08-14T23:22:24.366Z,90.23
2022-08-14T23:24:57.814Z,89.81
2022-08-14T23:27:28.411Z,89.77
2022-08-14T23:29:58.774Z,89.43
2022-08-14T23:32:27.295Z,89.26
2022-08-14T23:34:57.331Z,88.74
2022-08-14T23:37:27.002Z,88.93
2022-08-14T23:39:54.430Z,89.41
2022-08-14T23:42:22.328Z,89.53
2022-08-14T23:45:07.602Z,89.35
2022-08-14T23:47:51.898Z,89.10
2022-08-14T23:50:34.067Z,88.58
2022-08-14T23:53:27.880Z,88.64
2022-08-14T23:56:17.488Z,89.54
2022-08-14T23:58:49.336Z,89.16
